sensor_id;sensor_type;location;lat;lon;timestamp;P1;durP1;ratioP1;P2;durP2;ratioP2
20144;SDS011;10233;50.814;6.590;2022-07-04T00:00:24;3.95;;;1.20;;
20144;SDS011;10233;50.814;6.590;2022-07-04T00:01:25;3.13;;;1.00;;
20144;SDS011;10233;50.814;6.590;2022-07-04T00:02:25;3.80;;;1.20;;
20144;SDS011;10233;50.814;6.590;2022-07-04T00:03:26;3.08;;;1.15;;
20144;SDS011;10233;50.814;6.590;2022-07-04T00:04:26;2.30;;;1.17;;
20144;SDS011;10233;50.814;6.590;2022-07-04T00:05:27;3.10;;;1.00;;
20144;SDS011;10233;50.814;6.590;2022-07-04T00:06:27;3.83;;;1.10;;
20144;SDS011;10233;50.814;6.590;2022-07-04T00:07:27;2.00;;;1.20;;
20144;SDS011;10233;50.814;6.590;2022-07-04T00:08:28;2.53;;;1.30;;
20144;SDS011;10233;50.814;6.590;2022-07-04T00:09:28;3.40;;;1.20;;
20144;SDS011;10233;50.814;6.590;2022-07-04T00:10:29;1.60;;;1.20;;
20144;SDS011;10233;50.814;6.590;2022-07-04T00:11:29;3.10;;;1.20;;
20144;SDS011;10233;50.814;6.590;2022-07-04T00:12:30;3.77;;;1.43;;
20144;SDS011;10233;50.814;6.590;2022-07-04T00:13:31;3.72;;;1.20;;
20144;SDS011;10233;50.814;6.590;2022-07-04T00:14:31;1.60;;;1.10;;
20144;SDS011;10233;50.814;6.590;2022-07-04T00:15:32;3.28;;;1.35;;
20144;SDS011;10233;50.814;6.590;2022-07-04T00:16:32;5.70;;;1.35;;
20144;SDS011;10233;50.814;6.590;2022-07-04T00:17:34;2.42;;;1.20;;
20144;SDS011;10233;50.814;6.590;2022-07-04T00:18:35;3.17;;;1.30;;
20144;SDS011;10233;50.814;6.590;2022-07-04T00:19:35;3.20;;;1.10;;
20144;SDS011;10233;50.814;6.590;2022-07-04T00:20:36;3.50;;;1.35;;
20144;SDS011;10233;50.814;6.590;2022-07-04T00:21:36;1.30;;;1.20;;
20144;SDS011;10233;50.814;6.590;2022-07-04T00:22:37;2.73;;;1.40;;
20144;SDS011;10233;50.814;6.590;2022-07-04T00:23:38;2.83;;;1.20;;
20144;SDS011;10233;50.814;6.590;2022-07-04T00:24:38;4.57;;;1.30;;
20144;SDS011;10233;50.814;6.590;2022-07-04T00:25:38;2.58;;;1.35;;
20144;SDS011;10233;50.814;6.590;2022-07-04T00:26:39;1.80;;;1.20;;
20144;SDS011;10233;50.814;6.590;2022-07-04T00:27:40;2.30;;;1.10;;
20144;SDS011;10233;50.814;6.590;2022-07-04T00:28:40;2.80;;;1.30;;
20144;SDS011;10233;50.814;6.590;2022-07-04T00:29:41;3.35;;;1.20;;
20144;SDS011;10233;50.814;6.590;2022-07-04T00:30:41;2.20;;;1.30;;
20144;SDS011;10233;50.814;6.590;2022-07-04T00:31:42;2.60;;;1.10;;
20144;SDS011;10233;50.814;6.590;2022-07-04T00:32:42;1.92;;;1.38;;
20144;SDS011;10233;50.814;6.590;2022-07-04T00:33:43;3.10;;;1.30;;
20144;SDS011;10233;50.814;6.590;2022-07-04T00:34:43;3.08;;;1.17;;
20144;SDS011;10233;50.814;6.590;2022-07-04T00:35:44;4.43;;;1.30;;
20144;SDS011;10233;50.814;6.590;2022-07-04T00:36:44;1.55;;;1.20;;
20144;SDS011;10233;50.814;6.590;2022-07-04T00:37:45;1.77;;;1.10;;
20144;SDS011;10233;50.814;6.590;2022-07-04T00:38:45;2.77;;;1.40;;
20144;SDS011;10233;50.814;6.590;2022-07-04T00:39:46;2.25;;;1.15;;
20144;SDS011;10233;50.814;6.590;2022-07-04T00:40:46;3.20;;;1.23;;
20144;SDS011;10233;50.814;6.590;2022-07-04T00:41:47;2.37;;;1.40;;
20144;SDS011;10233;50.814;6.590;2022-07-04T00:42:47;2.58;;;1.20;;
20144;SDS011;10233;50.814;6.590;2022-07-04T00:44:04;3.40;;;1.20;;
20144;SDS011;10233;50.814;6.590;2022-07-04T00:45:06;2.45;;;1.35;;
20144;SDS011;10233;50.814;6.590;2022-07-04T00:46:07;2.35;;;1.20;;
20144;SDS011;10233;50.814;6.590;2022-07-04T00:47:07;1.67;;;1.27;;
20144;SDS011;10233;50.814;6.590;2022-07-04T00:48:08;3.33;;;1.17;;
20144;SDS011;10233;50.814;6.590;2022-07-04T00:49:09;1.52;;;1.00;;
20144;SDS011;10233;50.814;6.590;2022-07-04T00:50:10;2.90;;;1.10;;
20144;SDS011;10233;50.814;6.590;2022-07-04T00:51:11;4.50;;;1.20;;
20144;SDS011;10233;50.814;6.590;2022-07-04T00:52:11;1.53;;;1.20;;
20144;SDS011;10233;50.814;6.590;2022-07-04T00:53:13;2.03;;;1.20;;
20144;SDS011;10233;50.814;6.590;2022-07-04T00:54:15;1.85;;;1.00;;
20144;SDS011;10233;50.814;6.590;2022-07-04T00:55:17;2.72;;;1.17;;
20144;SDS011;10233;50.814;6.590;2022-07-04T00:56:20;1.63;;;1.10;;
20144;SDS011;10233;50.814;6.590;2022-07-04T00:57:24;2.35;;;1.08;;
20144;SDS011;10233;50.814;6.590;2022-07-04T00:58:24;3.13;;;1.42;;
20144;SDS011;10233;50.814;6.590;2022-07-04T00:59:25;2.60;;;1.10;;
20144;SDS011;10233;50.814;6.590;2022-07-04T01:00:26;2.50;;;1.23;;
20144;SDS011;10233;50.814;6.590;2022-07-04T01:01:27;2.78;;;1.40;;
20144;SDS011;10233;50.814;6.590;2022-07-04T01:02:27;3.13;;;1.37;;
20144;SDS011;10233;50.814;6.590;2022-07-04T01:03:29;3.42;;;1.10;;
20144;SDS011;10233;50.814;6.590;2022-07-04T01:04:30;3.17;;;1.13;;
20144;SDS011;10233;50.814;6.590;2022-07-04T01:05:30;2.83;;;1.30;;
20144;SDS011;10233;50.814;6.590;2022-07-04T01:06:31;3.57;;;1.10;;
20144;SDS011;10233;50.814;6.590;2022-07-04T01:07:32;3.78;;;1.30;;
20144;SDS011;10233;50.814;6.590;2022-07-04T01:08:33;3.22;;;1.30;;
20144;SDS011;10233;50.814;6.590;2022-07-04T01:09:36;2.65;;;1.33;;
20144;SDS011;10233;50.814;6.590;2022-07-04T01:10:36;3.38;;;1.40;;
20144;SDS011;10233;50.814;6.590;2022-07-04T01:11:37;1.80;;;1.10;;
20144;SDS011;10233;50.814;6.590;2022-07-04T01:12:38;3.22;;;1.30;;
20144;SDS011;10233;50.814;6.590;2022-07-04T01:13:38;2.33;;;1.37;;
20144;SDS011;10233;50.814;6.590;2022-07-04T01:14:41;2.42;;;1.10;;
20144;SDS011;10233;50.814;6.590;2022-07-04T01:15:41;2.03;;;1.20;;
20144;SDS011;10233;50.814;6.590;2022-07-04T01:16:42;2.77;;;1.37;;
20144;SDS011;10233;50.814;6.590;2022-07-04T01:17:42;2.10;;;1.23;;
20144;SDS011;10233;50.814;6.590;2022-07-04T01:18:43;1.90;;;1.10;;
20144;SDS011;10233;50.814;6.590;2022-07-04T01:19:43;2.53;;;1.20;;
20144;SDS011;10233;50.814;6.590;2022-07-04T01:20:44;1.90;;;1.13;;
20144;SDS011;10233;50.814;6.590;2022-07-04T01:21:44;2.78;;;1.17;;
20144;SDS011;10233;50.814;6.590;2022-07-04T01:22:45;2.60;;;1.30;;
20144;SDS011;10233;50.814;6.590;2022-07-04T01:23:45;2.70;;;1.30;;
20144;SDS011;10233;50.814;6.590;2022-07-04T01:24:46;2.70;;;1.30;;
20144;SDS011;10233;50.814;6.590;2022-07-04T01:25:46;2.88;;;1.13;;
20144;SDS011;10233;50.814;6.590;2022-07-04T01:26:48;1.75;;;1.10;;
20144;SDS011;10233;50.814;6.590;2022-07-04T01:27:49;2.10;;;1.20;;
20144;SDS011;10233;50.814;6.590;2022-07-04T01:28:49;3.17;;;1.23;;
20144;SDS011;10233;50.814;6.590;2022-07-04T01:29:49;2.20;;;1.13;;
20144;SDS011;10233;50.814;6.590;2022-07-04T01:30:50;2.30;;;1.20;;
20144;SDS011;10233;50.814;6.590;2022-07-04T01:31:52;2.80;;;1.48;;
20144;SDS011;10233;50.814;6.590;2022-07-04T01:32:54;2.17;;;1.50;;
20144;SDS011;10233;50.814;6.590;2022-07-04T01:33:55;4.55;;;1.60;;
20144;SDS011;10233;50.814;6.590;2022-07-04T01:34:55;2.17;;;1.40;;
20144;SDS011;10233;50.814;6.590;2022-07-04T01:35:55;2.85;;;1.38;;
20144;SDS011;10233;50.814;6.590;2022-07-04T01:36:56;2.53;;;1.43;;
20144;SDS011;10233;50.814;6.590;2022-07-04T01:37:58;2.85;;;1.30;;
20144;SDS011;10233;50.814;6.590;2022-07-04T01:39:00;1.87;;;1.20;;
20144;SDS011;10233;50.814;6.590;2022-07-04T01:40:02;2.50;;;1.38;;
20144;SDS011;10233;50.814;6.590;2022-07-04T01:41:02;2.73;;;1.60;;
20144;SDS011;10233;50.814;6.590;2022-07-04T01:42:03;2.10;;;1.30;;
20144;SDS011;10233;50.814;6.590;2022-07-04T01:43:04;3.85;;;1.70;;
20144;SDS011;10233;50.814;6.590;2022-07-04T01:44:04;2.53;;;1.40;;
20144;SDS011;10233;50.814;6.590;2022-07-04T01:45:05;3.97;;;1.80;;
20144;SDS011;10233;50.814;6.590;2022-07-04T01:46:07;2.00;;;1.33;;
20144;SDS011;10233;50.814;6.590;2022-07-04T01:47:07;1.98;;;1.20;;
20144;SDS011;10233;50.814;6.590;2022-07-04T01:48:08;2.20;;;1.33;;
20144;SDS011;10233;50.814;6.590;2022-07-04T01:49:10;2.55;;;1.35;;
20144;SDS011;10233;50.814;6.590;2022-07-04T01:50:10;1.20;;;0.90;;
20144;SDS011;10233;50.814;6.590;2022-07-04T01:51:14;1.83;;;1.10;;
20144;SDS011;10233;50.814;6.590;2022-07-04T01:52:14;1.47;;;1.00;;
20144;SDS011;10233;50.814;6.590;2022-07-04T01:53:15;2.17;;;1.20;;
20144;SDS011;10233;50.814;6.590;2022-07-04T01:54:16;3.67;;;1.20;;
20144;SDS011;10233;50.814;6.590;2022-07-04T01:55:17;1.45;;;1.10;;
20144;SDS011;10233;50.814;6.590;2022-07-04T01:56:17;1.37;;;1.10;;
20144;SDS011;10233;50.814;6.590;2022-07-04T01:57:17;2.07;;;1.10;;
20144;SDS011;10233;50.814;6.590;2022-07-04T01:58:18;1.95;;;1.10;;
20144;SDS011;10233;50.814;6.590;2022-07-04T01:59:18;2.57;;;1.40;;
20144;SDS011;10233;50.814;6.590;2022-07-04T02:00:19;2.63;;;1.20;;
20144;SDS011;10233;50.814;6.590;2022-07-04T02:01:38;2.13;;;1.20;;
20144;SDS011;10233;50.814;6.590;2022-07-04T02:02:39;2.10;;;1.00;;
20144;SDS011;10233;50.814;6.590;2022-07-04T02:03:39;1.60;;;1.17;;
20144;SDS011;10233;50.814;6.590;2022-07-04T02:04:40;3.40;;;1.30;;
20144;SDS011;10233;50.814;6.590;2022-07-04T02:05:42;2.33;;;1.30;;
20144;SDS011;10233;50.814;6.590;2022-07-04T02:06:42;2.10;;;1.10;;
20144;SDS011;10233;50.814;6.590;2022-07-04T02:07:43;3.43;;;1.63;;
20144;SDS011;10233;50.814;6.590;2022-07-04T02:08:44;4.88;;;1.55;;
20144;SDS011;10233;50.814;6.590;2022-07-04T02:10:02;3.40;;;1.55;;
20144;SDS011;10233;50.814;6.590;2022-07-04T02:11:03;3.85;;;1.27;;
20144;SDS011;10233;50.814;6.590;2022-07-04T02:12:04;2.00;;;1.20;;
20144;SDS011;10233;50.814;6.590;2022-07-04T02:13:23;3.35;;;1.40;;
20144;SDS011;10233;50.814;6.590;2022-07-04T02:14:24;2.95;;;1.20;;
20144;SDS011;10233;50.814;6.590;2022-07-04T02:15:25;9.77;;;1.67;;
20144;SDS011;10233;50.814;6.590;2022-07-04T02:16:25;3.28;;;1.38;;
20144;SDS011;10233;50.814;6.590;2022-07-04T02:17:26;2.33;;;1.20;;
20144;SDS011;10233;50.814;6.590;2022-07-04T02:18:27;1.40;;;1.20;;
20144;SDS011;10233;50.814;6.590;2022-07-04T02:19:27;2.72;;;1.30;;
20144;SDS011;10233;50.814;6.590;2022-07-04T02:20:28;2.97;;;1.40;;
20144;SDS011;10233;50.814;6.590;2022-07-04T02:21:29;3.80;;;1.73;;
20144;SDS011;10233;50.814;6.590;2022-07-04T02:22:29;2.17;;;1.30;;
20144;SDS011;10233;50.814;6.590;2022-07-04T02:23:29;3.20;;;1.40;;
20144;SDS011;10233;50.814;6.590;2022-07-04T02:24:30;2.07;;;1.30;;
20144;SDS011;10233;50.814;6.590;2022-07-04T02:25:30;3.57;;;1.30;;
20144;SDS011;10233;50.814;6.590;2022-07-04T02:26:31;3.80;;;1.60;;
20144;SDS011;10233;50.814;6.590;2022-07-04T02:27:32;2.40;;;1.50;;
20144;SDS011;10233;50.814;6.590;2022-07-04T02:28:32;1.90;;;1.30;;
20144;SDS011;10233;50.814;6.590;2022-07-04T02:29:33;5.32;;;1.60;;
20144;SDS011;10233;50.814;6.590;2022-07-04T02:30:34;3.67;;;1.55;;
20144;SDS011;10233;50.814;6.590;2022-07-04T02:31:35;4.77;;;1.77;;
20144;SDS011;10233;50.814;6.590;2022-07-04T02:32:35;4.05;;;1.42;;
20144;SDS011;10233;50.814;6.590;2022-07-04T02:33:36;2.50;;;1.90;;
20144;SDS011;10233;50.814;6.590;2022-07-04T02:34:37;5.82;;;1.75;;
20144;SDS011;10233;50.814;6.590;2022-07-04T02:35:37;10.27;;;4.33;;
20144;SDS011;10233;50.814;6.590;2022-07-04T02:36:37;17.42;;;6.03;;
20144;SDS011;10233;50.814;6.590;2022-07-04T02:37:38;4.43;;;1.80;;
20144;SDS011;10233;50.814;6.590;2022-07-04T02:38:39;5.53;;;1.75;;
20144;SDS011;10233;50.814;6.590;2022-07-04T02:39:40;5.90;;;1.60;;
20144;SDS011;10233;50.814;6.590;2022-07-04T02:40:40;4.90;;;1.80;;
20144;SDS011;10233;50.814;6.590;2022-07-04T02:41:41;2.30;;;1.80;;
20144;SDS011;10233;50.814;6.590;2022-07-04T02:42:41;4.77;;;1.50;;
20144;SDS011;10233;50.814;6.590;2022-07-04T02:43:42;5.40;;;2.50;;
20144;SDS011;10233;50.814;6.590;2022-07-04T02:44:43;6.27;;;2.43;;
20144;SDS011;10233;50.814;6.590;2022-07-04T02:45:44;5.93;;;1.90;;
20144;SDS011;10233;50.814;6.590;2022-07-04T02:46:45;4.10;;;1.80;;
20144;SDS011;10233;50.814;6.590;2022-07-04T02:47:45;4.13;;;2.17;;
20144;SDS011;10233;50.814;6.590;2022-07-04T02:48:46;4.60;;;2.00;;
20144;SDS011;10233;50.814;6.590;2022-07-04T02:49:46;3.88;;;1.92;;
20144;SDS011;10233;50.814;6.590;2022-07-04T02:50:47;3.60;;;1.90;;
20144;SDS011;10233;50.814;6.590;2022-07-04T02:51:47;5.50;;;2.03;;
20144;SDS011;10233;50.814;6.590;2022-07-04T02:52:48;7.53;;;2.07;;
20144;SDS011;10233;50.814;6.590;2022-07-04T02:53:48;4.68;;;1.83;;
20144;SDS011;10233;50.814;6.590;2022-07-04T02:54:49;5.60;;;1.90;;
20144;SDS011;10233;50.814;6.590;2022-07-04T02:55:52;6.05;;;2.10;;
20144;SDS011;10233;50.814;6.590;2022-07-04T02:56:53;5.07;;;2.13;;
20144;SDS011;10233;50.814;6.590;2022-07-04T02:57:53;4.90;;;2.13;;
20144;SDS011;10233;50.814;6.590;2022-07-04T02:58:54;4.60;;;1.92;;
20144;SDS011;10233;50.814;6.590;2022-07-04T02:59:54;6.57;;;2.07;;
20144;SDS011;10233;50.814;6.590;2022-07-04T03:00:55;5.97;;;2.22;;
20144;SDS011;10233;50.814;6.590;2022-07-04T03:01:55;3.40;;;2.13;;
20144;SDS011;10233;50.814;6.590;2022-07-04T03:02:56;6.53;;;2.23;;
20144;SDS011;10233;50.814;6.590;2022-07-04T03:03:57;4.37;;;2.17;;
20144;SDS011;10233;50.814;6.590;2022-07-04T03:04:57;5.85;;;2.08;;
20144;SDS011;10233;50.814;6.590;2022-07-04T03:05:58;3.33;;;1.80;;
20144;SDS011;10233;50.814;6.590;2022-07-04T03:06:58;6.15;;;2.00;;
20144;SDS011;10233;50.814;6.590;2022-07-04T03:07:59;2.50;;;1.43;;
20144;SDS011;10233;50.814;6.590;2022-07-04T03:08:59;3.10;;;1.73;;
20144;SDS011;10233;50.814;6.590;2022-07-04T03:10:00;4.47;;;1.93;;
20144;SDS011;10233;50.814;6.590;2022-07-04T03:11:00;5.00;;;1.73;;
20144;SDS011;10233;50.814;6.590;2022-07-04T03:12:01;3.35;;;1.63;;
20144;SDS011;10233;50.814;6.590;2022-07-04T03:13:02;4.87;;;1.70;;
20144;SDS011;10233;50.814;6.590;2022-07-04T03:14:02;2.28;;;1.27;;
20144;SDS011;10233;50.814;6.590;2022-07-04T03:15:03;3.70;;;1.37;;
20144;SDS011;10233;50.814;6.590;2022-07-04T03:16:04;2.85;;;1.50;;
20144;SDS011;10233;50.814;6.590;2022-07-04T03:17:05;3.40;;;1.40;;
20144;SDS011;10233;50.814;6.590;2022-07-04T03:18:05;1.87;;;1.33;;
20144;SDS011;10233;50.814;6.590;2022-07-04T03:19:06;3.67;;;1.33;;
20144;SDS011;10233;50.814;6.590;2022-07-04T03:20:06;2.72;;;1.38;;
20144;SDS011;10233;50.814;6.590;2022-07-04T03:21:07;4.57;;;1.50;;
20144;SDS011;10233;50.814;6.590;2022-07-04T03:22:08;3.05;;;1.30;;
20144;SDS011;10233;50.814;6.590;2022-07-04T03:23:08;4.50;;;1.37;;
20144;SDS011;10233;50.814;6.590;2022-07-04T03:24:09;3.65;;;1.38;;
20144;SDS011;10233;50.814;6.590;2022-07-04T03:25:10;5.00;;;1.85;;
20144;SDS011;10233;50.814;6.590;2022-07-04T03:26:10;5.13;;;1.40;;
20144;SDS011;10233;50.814;6.590;2022-07-04T03:27:11;2.37;;;1.37;;
20144;SDS011;10233;50.814;6.590;2022-07-04T03:28:11;1.75;;;1.33;;
20144;SDS011;10233;50.814;6.590;2022-07-04T03:29:12;4.20;;;1.50;;
20144;SDS011;10233;50.814;6.590;2022-07-04T03:30:12;1.88;;;1.30;;
20144;SDS011;10233;50.814;6.590;2022-07-04T03:31:13;3.23;;;1.67;;
20144;SDS011;10233;50.814;6.590;2022-07-04T03:32:13;3.10;;;1.20;;
20144;SDS011;10233;50.814;6.590;2022-07-04T03:33:14;5.00;;;1.70;;
20144;SDS011;10233;50.814;6.590;2022-07-04T03:34:14;2.73;;;1.37;;
20144;SDS011;10233;50.814;6.590;2022-07-04T03:35:15;2.80;;;1.30;;
20144;SDS011;10233;50.814;6.590;2022-07-04T03:36:16;1.83;;;1.33;;
20144;SDS011;10233;50.814;6.590;2022-07-04T03:37:17;6.88;;;1.92;;
20144;SDS011;10233;50.814;6.590;2022-07-04T03:38:18;4.20;;;1.70;;
20144;SDS011;10233;50.814;6.590;2022-07-04T03:39:18;11.70;;;1.30;;
20144;SDS011;10233;50.814;6.590;2022-07-04T03:40:19;4.20;;;1.60;;
20144;SDS011;10233;50.814;6.590;2022-07-04T03:41:20;2.97;;;1.75;;
20144;SDS011;10233;50.814;6.590;2022-07-04T03:42:20;2.38;;;1.30;;
20144;SDS011;10233;50.814;6.590;2022-07-04T03:43:21;3.00;;;1.40;;
20144;SDS011;10233;50.814;6.590;2022-07-04T03:44:21;4.45;;;1.65;;
20144;SDS011;10233;50.814;6.590;2022-07-04T03:45:22;4.00;;;1.50;;
20144;SDS011;10233;50.814;6.590;2022-07-04T03:46:22;4.05;;;1.58;;
20144;SDS011;10233;50.814;6.590;2022-07-04T03:47:23;3.57;;;1.43;;
20144;SDS011;10233;50.814;6.590;2022-07-04T03:48:23;2.53;;;1.45;;
20144;SDS011;10233;50.814;6.590;2022-07-04T03:49:24;2.40;;;1.30;;
20144;SDS011;10233;50.814;6.590;2022-07-04T03:50:24;4.80;;;1.67;;
20144;SDS011;10233;50.814;6.590;2022-07-04T03:51:25;2.47;;;1.40;;
20144;SDS011;10233;50.814;6.590;2022-07-04T03:52:25;2.93;;;1.30;;
20144;SDS011;10233;50.814;6.590;2022-07-04T03:53:26;1.55;;;1.30;;
20144;SDS011;10233;50.814;6.590;2022-07-04T03:54:26;1.73;;;1.30;;
20144;SDS011;10233;50.814;6.590;2022-07-04T03:55:28;3.08;;;1.55;;
20144;SDS011;10233;50.814;6.590;2022-07-04T03:56:29;4.10;;;1.90;;
20144;SDS011;10233;50.814;6.590;2022-07-04T03:57:30;3.42;;;1.80;;
20144;SDS011;10233;50.814;6.590;2022-07-04T03:58:31;2.63;;;1.45;;
20144;SDS011;10233;50.814;6.590;2022-07-04T03:59:31;2.37;;;1.30;;
20144;SDS011;10233;50.814;6.590;2022-07-04T04:00:32;3.92;;;1.60;;
20144;SDS011;10233;50.814;6.590;2022-07-04T04:01:32;3.57;;;1.40;;
20144;SDS011;10233;50.814;6.590;2022-07-04T04:02:33;3.83;;;1.63;;
20144;SDS011;10233;50.814;6.590;2022-07-04T04:03:34;2.80;;;1.47;;
20144;SDS011;10233;50.814;6.590;2022-07-04T04:04:53;2.53;;;1.60;;
20144;SDS011;10233;50.814;6.590;2022-07-04T04:06:13;1.95;;;1.17;;
20144;SDS011;10233;50.814;6.590;2022-07-04T04:07:13;3.55;;;1.65;;
20144;SDS011;10233;50.814;6.590;2022-07-04T04:08:14;5.10;;;1.33;;
20144;SDS011;10233;50.814;6.590;2022-07-04T04:09:14;2.95;;;1.20;;
20144;SDS011;10233;50.814;6.590;2022-07-04T04:10:18;3.70;;;1.30;;
20144;SDS011;10233;50.814;6.590;2022-07-04T04:11:19;3.20;;;1.20;;
20144;SDS011;10233;50.814;6.590;2022-07-04T04:12:19;6.30;;;1.35;;
20144;SDS011;10233;50.814;6.590;2022-07-04T04:13:21;5.15;;;1.33;;
20144;SDS011;10233;50.814;6.590;2022-07-04T04:14:22;2.58;;;1.35;;
20144;SDS011;10233;50.814;6.590;2022-07-04T04:15:24;3.08;;;1.50;;
20144;SDS011;10233;50.814;6.590;2022-07-04T04:16:24;4.80;;;1.58;;
20144;SDS011;10233;50.814;6.590;2022-07-04T04:17:25;3.57;;;1.30;;
20144;SDS011;10233;50.814;6.590;2022-07-04T04:18:25;4.43;;;1.70;;
20144;SDS011;10233;50.814;6.590;2022-07-04T04:19:26;3.10;;;1.55;;
20144;SDS011;10233;50.814;6.590;2022-07-04T04:20:26;1.70;;;1.30;;
20144;SDS011;10233;50.814;6.590;2022-07-04T04:21:27;3.63;;;1.38;;
20144;SDS011;10233;50.814;6.590;2022-07-04T04:22:28;1.50;;;1.20;;
20144;SDS011;10233;50.814;6.590;2022-07-04T04:23:29;3.95;;;1.63;;
20144;SDS011;10233;50.814;6.590;2022-07-04T04:24:29;2.93;;;1.40;;
20144;SDS011;10233;50.814;6.590;2022-07-04T04:25:30;2.25;;;1.50;;
20144;SDS011;10233;50.814;6.590;2022-07-04T04:26:31;2.22;;;1.40;;
20144;SDS011;10233;50.814;6.590;2022-07-04T04:27:32;3.77;;;1.80;;
20144;SDS011;10233;50.814;6.590;2022-07-04T04:28:32;2.90;;;1.25;;
20144;SDS011;10233;50.814;6.590;2022-07-04T04:29:32;1.93;;;1.40;;
20144;SDS011;10233;50.814;6.590;2022-07-04T04:30:33;2.45;;;1.25;;
20144;SDS011;10233;50.814;6.590;2022-07-04T04:31:34;4.60;;;1.47;;
20144;SDS011;10233;50.814;6.590;2022-07-04T04:32:34;4.50;;;1.42;;
20144;SDS011;10233;50.814;6.590;2022-07-04T04:33:35;2.97;;;1.40;;
20144;SDS011;10233;50.814;6.590;2022-07-04T04:34:36;3.70;;;1.23;;
20144;SDS011;10233;50.814;6.590;2022-07-04T04:35:36;2.58;;;1.38;;
20144;SDS011;10233;50.814;6.590;2022-07-04T04:36:37;5.17;;;1.30;;
20144;SDS011;10233;50.814;6.590;2022-07-04T04:37:37;1.52;;;1.17;;
20144;SDS011;10233;50.814;6.590;2022-07-04T04:38:38;3.80;;;1.30;;
20144;SDS011;10233;50.814;6.590;2022-07-04T04:39:38;4.35;;;1.20;;
20144;SDS011;10233;50.814;6.590;2022-07-04T04:40:39;3.43;;;1.20;;
20144;SDS011;10233;50.814;6.590;2022-07-04T04:41:40;2.03;;;1.83;;
20144;SDS011;10233;50.814;6.590;2022-07-04T04:42:40;4.37;;;1.40;;
20144;SDS011;10233;50.814;6.590;2022-07-04T04:43:41;3.38;;;1.15;;
20144;SDS011;10233;50.814;6.590;2022-07-04T04:44:41;3.33;;;1.30;;
20144;SDS011;10233;50.814;6.590;2022-07-04T04:45:42;1.70;;;1.13;;
20144;SDS011;10233;50.814;6.590;2022-07-04T04:46:42;1.65;;;1.30;;
20144;SDS011;10233;50.814;6.590;2022-07-04T04:47:42;4.03;;;1.40;;
20144;SDS011;10233;50.814;6.590;2022-07-04T04:48:43;4.60;;;1.58;;
20144;SDS011;10233;50.814;6.590;2022-07-04T04:49:44;5.03;;;1.30;;
20144;SDS011;10233;50.814;6.590;2022-07-04T04:50:44;2.15;;;1.38;;
20144;SDS011;10233;50.814;6.590;2022-07-04T04:51:45;1.77;;;1.30;;
20144;SDS011;10233;50.814;6.590;2022-07-04T04:52:45;3.65;;;1.30;;
20144;SDS011;10233;50.814;6.590;2022-07-04T04:53:46;2.90;;;1.10;;
20144;SDS011;10233;50.814;6.590;2022-07-04T04:54:46;3.80;;;1.40;;
20144;SDS011;10233;50.814;6.590;2022-07-04T04:55:46;2.78;;;1.33;;
20144;SDS011;10233;50.814;6.590;2022-07-04T04:56:47;2.57;;;1.23;;
20144;SDS011;10233;50.814;6.590;2022-07-04T04:57:47;3.40;;;1.40;;
20144;SDS011;10233;50.814;6.590;2022-07-04T04:58:48;3.83;;;1.27;;
20144;SDS011;10233;50.814;6.590;2022-07-04T04:59:48;3.47;;;1.20;;
20144;SDS011;10233;50.814;6.590;2022-07-04T05:00:49;4.65;;;1.77;;
20144;SDS011;10233;50.814;6.590;2022-07-04T05:01:49;3.90;;;1.53;;
20144;SDS011;10233;50.814;6.590;2022-07-04T05:02:50;6.55;;;1.70;;
20144;SDS011;10233;50.814;6.590;2022-07-04T05:03:52;2.73;;;1.57;;
20144;SDS011;10233;50.814;6.590;2022-07-04T05:04:53;3.63;;;1.52;;
20144;SDS011;10233;50.814;6.590;2022-07-04T05:05:53;2.20;;;1.42;;
20144;SDS011;10233;50.814;6.590;2022-07-04T05:06:54;2.53;;;1.30;;
20144;SDS011;10233;50.814;6.590;2022-07-04T05:07:54;2.80;;;1.70;;
20144;SDS011;10233;50.814;6.590;2022-07-04T05:08:55;5.35;;;1.60;;
20144;SDS011;10233;50.814;6.590;2022-07-04T05:09:56;1.53;;;1.13;;
20144;SDS011;10233;50.814;6.590;2022-07-04T05:10:59;2.90;;;1.60;;
20144;SDS011;10233;50.814;6.590;2022-07-04T05:11:59;1.88;;;1.30;;
20144;SDS011;10233;50.814;6.590;2022-07-04T05:13:00;3.77;;;1.30;;
20144;SDS011;10233;50.814;6.590;2022-07-04T05:14:00;1.47;;;1.00;;
20144;SDS011;10233;50.814;6.590;2022-07-04T05:15:02;2.72;;;1.25;;
20144;SDS011;10233;50.814;6.590;2022-07-04T05:16:03;5.20;;;1.50;;
20144;SDS011;10233;50.814;6.590;2022-07-04T05:17:03;4.93;;;1.47;;
20144;SDS011;10233;50.814;6.590;2022-07-04T05:18:04;2.55;;;1.10;;
20144;SDS011;10233;50.814;6.590;2022-07-04T05:19:05;2.80;;;1.47;;
20144;SDS011;10233;50.814;6.590;2022-07-04T05:20:05;2.95;;;1.23;;
20144;SDS011;10233;50.814;6.590;2022-07-04T05:21:07;3.08;;;1.50;;
20144;SDS011;10233;50.814;6.590;2022-07-04T05:22:08;2.40;;;1.57;;
20144;SDS011;10233;50.814;6.590;2022-07-04T05:23:10;3.50;;;1.30;;
20144;SDS011;10233;50.814;6.590;2022-07-04T05:24:11;2.00;;;1.42;;
20144;SDS011;10233;50.814;6.590;2022-07-04T05:25:12;4.77;;;1.40;;
20144;SDS011;10233;50.814;6.590;2022-07-04T05:26:12;2.35;;;1.33;;
20144;SDS011;10233;50.814;6.590;2022-07-04T05:27:13;2.53;;;1.40;;
20144;SDS011;10233;50.814;6.590;2022-07-04T05:28:13;1.88;;;1.30;;
20144;SDS011;10233;50.814;6.590;2022-07-04T05:29:14;3.93;;;1.40;;
20144;SDS011;10233;50.814;6.590;2022-07-04T05:30:14;3.03;;;1.47;;
20144;SDS011;10233;50.814;6.590;2022-07-04T05:31:15;3.78;;;1.33;;
20144;SDS011;10233;50.814;6.590;2022-07-04T05:32:15;2.73;;;1.10;;
20144;SDS011;10233;50.814;6.590;2022-07-04T05:33:16;2.58;;;1.35;;
20144;SDS011;10233;50.814;6.590;2022-07-04T05:34:16;3.53;;;1.30;;
20144;SDS011;10233;50.814;6.590;2022-07-04T05:35:18;3.13;;;1.50;;
20144;SDS011;10233;50.814;6.590;2022-07-04T05:36:19;1.83;;;1.10;;
20144;SDS011;10233;50.814;6.590;2022-07-04T05:37:20;1.95;;;1.13;;
20144;SDS011;10233;50.814;6.590;2022-07-04T05:38:21;5.20;;;1.13;;
20144;SDS011;10233;50.814;6.590;2022-07-04T05:39:21;1.73;;;1.00;;
20144;SDS011;10233;50.814;6.590;2022-07-04T05:40:25;2.58;;;1.10;;
20144;SDS011;10233;50.814;6.590;2022-07-04T05:41:26;2.28;;;1.00;;
20144;SDS011;10233;50.814;6.590;2022-07-04T05:42:27;5.20;;;1.27;;
20144;SDS011;10233;50.814;6.590;2022-07-04T05:43:27;2.90;;;1.05;;
20144;SDS011;10233;50.814;6.590;2022-07-04T05:44:28;2.40;;;1.10;;
20144;SDS011;10233;50.814;6.590;2022-07-04T05:45:28;3.60;;;1.07;;
20144;SDS011;10233;50.814;6.590;2022-07-04T05:46:29;3.38;;;1.10;;
20144;SDS011;10233;50.814;6.590;2022-07-04T05:47:29;11.17;;;1.10;;
20144;SDS011;10233;50.814;6.590;2022-07-04T05:48:30;2.33;;;1.10;;
20144;SDS011;10233;50.814;6.590;2022-07-04T05:49:30;2.10;;;0.90;;
20144;SDS011;10233;50.814;6.590;2022-07-04T05:50:31;1.67;;;0.97;;
20144;SDS011;10233;50.814;6.590;2022-07-04T05:51:31;2.08;;;0.95;;
20144;SDS011;10233;50.814;6.590;2022-07-04T05:52:32;2.60;;;1.13;;
20144;SDS011;10233;50.814;6.590;2022-07-04T05:53:32;3.38;;;1.20;;
20144;SDS011;10233;50.814;6.590;2022-07-04T05:54:33;2.17;;;0.97;;
20144;SDS011;10233;50.814;6.590;2022-07-04T05:55:34;1.70;;;1.05;;
20144;SDS011;10233;50.814;6.590;2022-07-04T05:56:35;2.83;;;0.85;;
20144;SDS011;10233;50.814;6.590;2022-07-04T05:57:37;2.38;;;1.10;;
20144;SDS011;10233;50.814;6.590;2022-07-04T05:58:38;3.55;;;1.10;;
20144;SDS011;10233;50.814;6.590;2022-07-04T05:59:39;3.33;;;1.20;;
20144;SDS011;10233;50.814;6.590;2022-07-04T06:00:39;3.50;;;1.10;;
20144;SDS011;10233;50.814;6.590;2022-07-04T06:01:42;1.80;;;1.00;;
20144;SDS011;10233;50.814;6.590;2022-07-04T06:02:43;2.80;;;1.20;;
20144;SDS011;10233;50.814;6.590;2022-07-04T06:03:43;2.80;;;1.10;;
20144;SDS011;10233;50.814;6.590;2022-07-04T06:04:47;1.70;;;1.00;;
20144;SDS011;10233;50.814;6.590;2022-07-04T06:05:47;2.47;;;1.23;;
20144;SDS011;10233;50.814;6.590;2022-07-04T06:06:49;2.75;;;1.13;;
20144;SDS011;10233;50.814;6.590;2022-07-04T06:07:49;2.10;;;0.90;;